Monday, November 24, 2014, 8:26 PM EST

KJYO, Leesburg / Godfrey

Location: Leesburg, VA, United States Lat: 39.083
Local Time: 8:26 PM EST ( 1:26 GMT) Lon: -77.567
Time Zone: US/Eastern Elev: 390 ft

Show me the last for .
Show Decoded

2014-11-24 19:55 METAR KJYO 250055Z AUTO 20009KT 10SM CLR 18/13 A2970 RMK AO2 =
2014-11-24 19:35 METAR KJYO 250035Z AUTO 20012KT 10SM CLR 18/13 A2970 RMK AO2 =
2014-11-24 19:15 METAR KJYO 250015Z AUTO 21008KT 10SM CLR 18/13 A2969 RMK AO2 LTG DSNT S =
2014-11-24 18:55 METAR KJYO 242355Z AUTO 21007KT 10SM CLR 18/13 A2968 RMK AO2 =
2014-11-24 18:35 METAR KJYO 242335Z AUTO 20010KT 10SM CLR 19/13 A2968 RMK AO2 =
2014-11-24 17:55 METAR KJYO 242255Z AUTO 20009KT 10SM CLR 19/13 A2967 RMK AO2 =
2014-11-24 17:35 METAR KJYO 242235Z AUTO 20009KT 10SM CLR 20/13 A2966 RMK AO2 =
2014-11-24 17:15 METAR KJYO 242215Z AUTO 20008KT 10SM CLR 20/13 A2965 RMK AO2 LTG DSNT SW =
2014-11-24 16:55 METAR KJYO 242155Z AUTO 20011KT 10SM CLR 20/13 A2965 RMK AO2 =
2014-11-24 16:35 METAR KJYO 242135Z AUTO 21010G20KT 10SM CLR 20/13 A2964 RMK AO2 =
2014-11-24 16:15 METAR KJYO 242115Z AUTO 22011G20KT 10SM CLR 21/13 A2964 RMK AO2 =
2014-11-24 15:35 METAR KJYO 242035Z AUTO 22016G24KT 10SM CLR 21/13 A2963 RMK AO2 =
2014-11-24 15:15 METAR KJYO 242015Z AUTO 21017G22KT 10SM CLR 21/13 A2962 RMK AO2 =
2014-11-24 14:55 METAR KJYO 241955Z AUTO 20016G25KT 10SM CLR 21/13 A2962 RMK AO2 =
2014-11-24 14:35 METAR KJYO 241935Z AUTO 22014G24KT 10SM CLR 21/13 A2961 RMK AO2 =
2014-11-24 14:15 METAR KJYO 241915Z AUTO 21012G23KT 10SM CLR 21/13 A2961 RMK AO2 =
2014-11-24 13:55 METAR KJYO 241855Z AUTO 21012G22KT 10SM SCT038 21/13 A2961 RMK AO2 =
2014-11-24 13:35 METAR KJYO 241835Z AUTO 21017G22KT 10SM SCT036 SCT042 21/14 A2961 RMK AO2 =
2014-11-24 13:15 METAR KJYO 241815Z AUTO 20019G26KT 10SM SCT034 21/14 A2961 RMK AO2 =
2014-11-24 12:55 METAR KJYO 241755Z AUTO 21016G25KT 10SM SCT030 21/14 A2961 RMK AO2 =
2014-11-24 12:35 METAR KJYO 241735Z AUTO 21014G19KT 10SM SCT030 20/15 A2961 RMK AO2 =
2014-11-24 12:15 METAR KJYO 241715Z AUTO 19019G24KT 10SM SCT028 SCT034 20/15 A2963 RMK AO2 =
2014-11-24 11:55 METAR KJYO 241655Z AUTO 20014G29KT 10SM BKN028 20/15 A2964 RMK AO2 =
2014-11-24 11:35 METAR KJYO 241635Z AUTO 20015G24KT 10SM OVC026 19/15 A2965 RMK AO2 LTG DSNT S =
2014-11-24 11:15 METAR KJYO 241615Z AUTO 22016G21KT 10SM OVC024 18/15 A2967 RMK AO2 =
2014-11-24 10:55 METAR KJYO 241555Z AUTO 20019G25KT 10SM OVC024 18/15 A2967 RMK AO2 =
2014-11-24 10:35 METAR KJYO 241535Z AUTO 21019G24KT 10SM OVC024 18/15 A2967 RMK AO2 =
2014-11-24 10:15 METAR KJYO 241515Z AUTO 21015G24KT 10SM BKN024 18/15 A2968 RMK AO2 =
2014-11-24 09:55 METAR KJYO 241455Z AUTO 21015G21KT 10SM SCT024 18/15 A2968 RMK AO2 LTG DSNT S =
2014-11-24 09:35 METAR KJYO 241435Z AUTO 20018G23KT 10SM SCT022 18/15 A2968 RMK AO2 =
2014-11-24 09:15 METAR KJYO 241415Z AUTO 21014G24KT 10SM SCT022 17/15 A2968 RMK AO2 LTG DSNT S =
2014-11-24 08:55 METAR KJYO 241355Z AUTO 21013G22KT 10SM CLR 17/15 A2968 RMK AO2 P0001 =
2014-11-24 08:35 METAR KJYO 241335Z AUTO 22013KT 10SM CLR 17/15 A2967 RMK AO2 LTG DSNT S P0001 =
2014-11-24 07:55 METAR KJYO 241255Z AUTO 21009G15KT 200V270 10SM SCT016 SCT024 16/16 A2966 RMK
                 AO2 =
2014-11-24 07:35 METAR KJYO 241235Z AUTO 22010G16KT 10SM CLR 16/16 A2967 RMK AO2 =
2014-11-24 06:55 METAR KJYO 241155Z AUTO 21011G18KT 10SM SCT023 SCT030 16/16 A2966 RMK AO2 =
2014-11-24 06:35 METAR KJYO 241135Z AUTO 21009G14KT 10SM SCT029 16/16 A2965 RMK AO2 =
2014-11-24 06:15 METAR KJYO 241115Z AUTO 20011KT 10SM SCT020 SCT027 SCT032 16/16 A2965 RMK AO2 =
2014-11-24 05:35 METAR KJYO 241035Z AUTO 21005KT 10SM BKN029 BKN035 16/16 A2965 RMK AO2 =
2014-11-24 04:55 METAR KJYO 240955Z AUTO 21007KT 10SM BKN010 OVC023 16/16 A2965 RMK AO2 =
2014-11-24 04:35 METAR KJYO 240935Z AUTO 24009G15KT 7SM -RA BKN007 OVC013 16/16 A2965 RMK AO2 =
2014-11-24 04:15 METAR KJYO 240915Z AUTO 18010KT 10SM OVC013 16/16 A2964 RMK AO2 =
2014-11-24 03:55 METAR KJYO 240855Z AUTO 20005KT 10SM BKN007 OVC013 16/16 A2965 RMK AO2 =
2014-11-24 03:35 METAR KJYO 240835Z AUTO 27004KT 10SM -RA OVC005 16/16 A2964 RMK AO2 =
2014-11-24 03:15 METAR KJYO 240815Z AUTO 10SM RA OVC005 16/16 A2965 RMK AO2 =
2014-11-24 02:35 METAR KJYO 240735Z AUTO 10SM BKN007 OVC011 15/15 A2965 RMK AO2 P0005 =
2014-11-24 02:15 METAR KJYO 240715Z AUTO 5SM RA OVC007 15/15 A2966 RMK AO2 P0004 =
2014-11-24 01:55 METAR KJYO 240655Z AUTO 5SM -RA OVC007 15/15 A2966 RMK AO2 P0004 =
2014-11-24 01:35 METAR KJYO 240635Z AUTO 10SM RA OVC007 15/15 A2966 RMK AO2 P0001 =
2014-11-24 01:15 METAR KJYO 240615Z AUTO 10SM RA OVC005 15/15 A2966 RMK AO2 P0001 =
2014-11-24 00:55 METAR KJYO 240555Z AUTO 10SM -RA OVC005 13/13 A2967 RMK AO2 P0020 =
2014-11-24 00:35 METAR KJYO 240535Z AUTO 7SM RA OVC005 13/13 A2971 RMK AO2 P0018 =
2014-11-24 00:15 METAR KJYO 240515Z AUTO 5SM +RA OVC003 12/12 A2974 RMK AO2 P0010 =
2014-11-23 23:55 METAR KJYO 240455Z AUTO 4SM +RA OVC003 12/12 A2977 RMK AO2 P0021 =
2014-11-23 23:35 METAR KJYO 240435Z AUTO 4SM +RA OVC003 12/12 A2979 RMK AO2 P0013 =
2014-11-23 23:15 METAR KJYO 240415Z AUTO 4SM RA OVC003 12/12 A2981 RMK AO2 P0004 =
2014-11-23 22:55 METAR KJYO 240355Z AUTO 5SM DZ OVC003 12/12 A2983 RMK AO2 P0006 =
2014-11-23 22:35 METAR KJYO 240335Z AUTO 4SM RA OVC003 11/11 A2985 RMK AO2 LTG DSNT S P0006 =
2014-11-23 22:15 METAR KJYO 240315Z AUTO 4SM RA OVC003 11/11 A2988 RMK AO2 P0004 =
2014-11-23 21:35 METAR KJYO 240235Z AUTO 2 1/2SM DZ BKN005 BKN010 OVC014 11/11 A2993 RMK AO2
                 P0001 =
2014-11-23 21:15 METAR KJYO 240215Z AUTO 16005KT 10SM -RA OVC014 11/10 A2994 RMK AO2 =
2014-11-23 20:55 METAR KJYO 240155Z AUTO 16005KT 10SM -RA OVC016 11/10 A2995 RMK AO2 =
2014-11-23 20:35 METAR KJYO 240135Z AUTO 15006KT 10SM -RA BKN018 OVC027 12/10 A2996 RMK AO2 =

Support USWX by starting your Amazon purchase here.